Artvin — 9HA2782 — position and weather

sailwx.info

Track history (hours):
 
Tides and Currents Weather Stations Pressure Air Temp Water Temp Dewpoint Dewpoint Depression Visibility Wind Speed Wind Dir Waves Ship Positions

Artvin

Last reported at 2015-May-16 19:29 UTC. Time now 2015-May-29 00:14 UTC.
Position S 34°46' W 057°33'.
Warning: this ship's position is 12 days out of date.

Length 229 m; draft 10.2 m.

Type: Cargo ship. MMSI: 215678000.

Date/timePositionNaut miles runAvg speedWind from/ knotsBaromVisibWave heightAir tempDewpointWater temp
2015-May-16 19:29S 34°46' W 057°33'1110.3
2015-May-16 18:25S 34°44' W 057°46'3 3.2
2015-May-16 17:31S 34°45' W 057°49'0 0.0
2015-May-16 16:28S 34°45' W 057°49'0 0.1
2015-May-16 15:23S 34°45' W 057°49'0 0.2
2015-May-16 14:29S 34°45' W 057°49'0 0.0
2015-May-16 13:28S 34°45' W 057°49'0 0.0
2015-May-16 12:29S 34°45' W 057°49'0 0.0
2015-May-16 11:31S 34°45' W 057°49'0 0.0
2015-May-16 10:32S 34°45' W 057°49'0 0.0
2015-May-16 09:31S 34°45' W 057°49'1 0.9
2015-May-16 08:33S 34°44' W 057°49'1111.0
2015-May-16 07:33S 34°40' W 058°02'1110.8
2015-May-16 06:30S 34°36' W 058°15'1010.0
2015-May-16 05:33S 34°29' W 058°23'9 8.9
2015-May-16 04:33S 34°22' W 058°28'  
2015-May-12 23:33S 33°52' W 058°26'26 1.5
2015-May-12 06:29S 34°13' W 058°07'1111.6
2015-May-12 05:33S 34°22' W 058°00'1111.5
2015-May-12 04:33S 34°33' W 057°56'9 9.4
2015-May-12 03:33S 34°42' W 057°53'1313.3
2015-May-12 02:34S 34°45' W 057°38'1413.8
2015-May-12 01:33S 34°51' W 057°22'3012.3
2015-May-11 23:07S 35°10' W 056°54'  
Track history (hours):
 
Tides and Currents Weather Stations Pressure Air Temp Water Temp Dewpoint Dewpoint Depression Visibility Wind Speed Wind Dir Waves Ship Positions

Artvin

Last reported at 2015-May-16 19:29 UTC. Time now 2015-May-29 00:14 UTC.
Position S 34°46' W 057°33'.
Warning: this ship's position is 12 days out of date.

Length 229 m; draft 10.2 m.

Type: Cargo ship. MMSI: 215678000.

Date/timePositionNaut miles runAvg speedWind from/ knotsBaromVisibWave heightAir tempDewpointWater temp
2015-May-16 19:29S 34°46' W 057°33'1110.3
2015-May-16 18:25S 34°44' W 057°46'3 3.2
2015-May-16 17:31S 34°45' W 057°49'0 0.0
2015-May-16 16:28S 34°45' W 057°49'0 0.1
2015-May-16 15:23S 34°45' W 057°49'0 0.2
2015-May-16 14:29S 34°45' W 057°49'0 0.0
2015-May-16 13:28S 34°45' W 057°49'0 0.0
2015-May-16 12:29S 34°45' W 057°49'0 0.0
2015-May-16 11:31S 34°45' W 057°49'0 0.0
2015-May-16 10:32S 34°45' W 057°49'0 0.0
2015-May-16 09:31S 34°45' W 057°49'1 0.9
2015-May-16 08:33S 34°44' W 057°49'1111.0
2015-May-16 07:33S 34°40' W 058°02'1110.8
2015-May-16 06:30S 34°36' W 058°15'1010.0
2015-May-16 05:33S 34°29' W 058°23'9 8.9
2015-May-16 04:33S 34°22' W 058°28'  
2015-May-12 23:33S 33°52' W 058°26'26 1.5
2015-May-12 06:29S 34°13' W 058°07'1111.6
2015-May-12 05:33S 34°22' W 058°00'1111.5
2015-May-12 04:33S 34°33' W 057°56'9 9.4
2015-May-12 03:33S 34°42' W 057°53'1313.3
2015-May-12 02:34S 34°45' W 057°38'1413.8
2015-May-12 01:33S 34°51' W 057°22'3012.3
2015-May-11 23:07S 35°10' W 056°54'  

Dump ship's entire track history